Van Horn's Hourly Summary for Thursday, October 22, 2020
Hour Temp
(f)
RH
(%)
Solar Rad.
(MJ/m2)
Rainfall
(in)
Wind
(mph)
Battery
(volts)
10/22/2020 12:00 AM 72 52 0 0 11.24 0
10/22/2020 1:00 AM 69 57 0 0 10.89 0
10/22/2020 2:00 AM 68 59 0 0 12.79 0
10/22/2020 3:00 AM 66 62 0 0 12.03 0
10/22/2020 4:00 AM 64 64 0 0 10.21 0
10/22/2020 5:00 AM 64 63 0 0 10.21 0
10/22/2020 6:00 AM 65 62 0 0 9.71 0
10/22/2020 7:00 AM 64 65 0 0 8.36 0
10/22/2020 8:00 AM 63 66 0.02 0 8.34 0
10/22/2020 9:00 AM 68 58 0.24 0 9.51 0
10/22/2020 10:00 AM 74 44 0.42 0 10.6 0
10/22/2020 11:00 AM 79 36 0.56 0 10.25 0
10/22/2020 12:00 PM 82 27 0.63 0 4.22 0
10/22/2020 1:00 PM 84 22 0.67 0 6.31 0
10/22/2020 2:00 PM 86 19 0.65 0 3.32 0
10/22/2020 3:00 PM 87 15 0.56 0 7.89 0
10/22/2020 4:00 PM 87 14 0.43 0 5.37 0
10/22/2020 5:00 PM 88 12 0.27 0 9.92 0
10/22/2020 6:00 PM 85 11 0.08 0 10.89 0
10/22/2020 7:00 PM 81 13 0 0 5.48 0
10/22/2020 8:00 PM 79 14 0 0 5.82 0
10/22/2020 9:00 PM 77 16 0 0 5.52 0
10/22/2020 10:00 PM 65 23 0 0 3.28 0
10/22/2020 11:00 PM 61 25 0 0 3.12 0
Data Summary 74 37 4.53 0.00 8.14 0.00